Time;durP1;ratioP1;P1;durP2;ratioP2;P2;SDS_P1;SDS_P2;PMS_P1;PMS_P2;Temp;Humidity;BMP_temperature;BMP_pressure;BME280_temperature;BME280_humidity;BME280_pressure;Samples;Min_cycle;Max_cycle;Signal;HPM_P1;HPM_P2
2021/05/20 00:01:12;;;;;;;7.70;2.20;;;;;;;18.18;100.00;100358.94;5070268;28;20253;-75
2021/05/20 00:03:38;;;;;;;8.17;2.43;;;;;;;18.15;100.00;100353.13;5070375;28;20314;-73
2021/05/20 00:06:05;;;;;;;8.40;2.57;;;;;;;18.12;100.00;100358.75;5050501;28;20646;-75
2021/05/20 00:08:31;;;;;;;3.63;2.20;;;;;;;18.20;100.00;100351.63;5050992;28;20153;-74
2021/05/20 00:10:56;;;;;;;6.67;2.37;;;;;;;18.23;100.00;100351.31;5070294;28;20433;-74
2021/05/20 00:13:22;;;;;;;7.70;2.50;;;;;;;18.20;100.00;100345.47;5070412;28;20769;-72
2021/05/20 00:15:47;;;;;;;5.73;2.20;;;;;;;18.19;100.00;100344.63;5070529;28;20168;-72
2021/05/20 00:18:13;;;;;;;4.10;2.47;;;;;;;18.32;100.00;100336.22;5068833;28;20225;-73
2021/05/20 00:20:38;;;;;;;6.63;1.97;;;;;;;18.26;100.00;100334.19;5070444;28;20518;-73
2021/05/20 00:23:04;;;;;;;6.23;2.23;;;;;;;18.30;100.00;100327.56;5069978;28;20200;-75
2021/05/20 00:25:29;;;;;;;7.33;2.03;;;;;;;18.25;100.00;100333.34;5070673;28;20153;-74
2021/05/20 00:27:55;;;;;;;4.30;2.10;;;;;;;18.22;100.00;100324.88;5070214;28;20180;-72
2021/05/20 00:30:20;;;;;;;4.30;2.00;;;;;;;18.27;100.00;100318.06;5070008;28;20247;-73
2021/05/20 00:32:46;;;;;;;11.30;2.37;;;;;;;18.30;100.00;100307.13;5070598;28;20627;-73
2021/05/20 00:35:12;;;;;;;6.60;2.80;;;;;;;18.30;100.00;100308.94;5073333;28;20160;-76
2021/05/20 00:37:38;;;;;;;4.60;2.40;;;;;;;18.35;100.00;100303.13;5072440;28;20211;-74
2021/05/20 00:40:04;;;;;;;4.93;2.00;;;;;;;18.32;100.00;100314.94;5074166;28;20496;-74
2021/05/20 00:42:30;;;;;;;4.20;2.40;;;;;;;18.38;100.00;100302.81;5074237;28;20797;-78
2021/05/20 00:45:04;;;;;;;7.80;2.03;;;;;;;18.32;100.00;100314.94;5074068;28;20543;-72
2021/05/20 00:47:33;;;;;;;6.33;2.63;;;;;;;18.35;100.00;100308.44;5073515;28;20816;-73
2021/05/20 00:50:00;;;;;;;8.63;2.27;;;;;;;18.34;100.00;100306.78;5073580;28;20422;-76
2021/05/20 00:52:26;;;;;;;5.90;2.37;;;;;;;18.28;100.00;100313.56;5073877;28;20475;-73
2021/05/20 00:54:55;;;;;;;7.03;1.80;;;;;;;18.25;100.00;100308.59;5073951;28;20399;-77
2021/05/20 00:57:21;;;;;;;4.53;1.80;;;;;;;18.21;100.00;100307.25;5074138;28;20391;-79
2021/05/20 00:59:51;;;;;;;5.33;1.97;;;;;;;18.17;100.00;100297.94;5073929;28;21018;-76
2021/05/20 01:02:17;;;;;;;3.90;2.03;;;;;;;18.28;100.00;100293.13;5073314;28;20515;-77
2021/05/20 01:04:43;;;;;;;5.27;1.83;;;;;;;18.20;100.00;100281.66;5056739;28;20492;-78
2021/05/20 01:07:08;;;;;;;6.30;2.10;;;;;;;18.28;100.00;100281.66;5053682;28;20404;-76
2021/05/20 01:09:35;;;;;;;5.87;2.00;;;;;;;18.26;100.00;100279.16;5063576;28;20230;-77
2021/05/20 01:12:06;;;;;;;5.40;2.07;;;;;;;18.28;100.00;100289.63;5073984;28;20161;-78
2021/05/20 01:14:43;;;;;;;9.33;1.90;;;;;;;18.26;100.00;100288.97;5074101;28;20391;-77
2021/05/20 01:17:08;;;;;;;4.40;2.40;;;;;;;18.26;100.00;100278.34;5073982;28;20784;-74
2021/05/20 01:19:35;;;;;;;4.17;2.10;;;;;;;18.29;100.00;100280.69;5071745;28;20916;-76
2021/05/20 01:22:01;;;;;;;5.23;1.80;;;;;;;18.18;100.00;100280.97;5073890;28;20737;-75
2021/05/20 01:24:27;;;;;;;6.90;2.10;;;;;;;18.28;100.00;100271.00;5073489;28;20423;-76
2021/05/20 01:26:54;;;;;;;3.97;1.70;;;;;;;18.18;100.00;100263.19;5073190;28;20180;-74
2021/05/20 01:29:19;;;;;;;5.00;1.70;;;;;;;18.20;100.00;100271.00;5073856;28;20183;-78
2021/05/20 01:31:45;;;;;;;4.73;2.53;;;;;;;18.14;100.00;100264.53;5072982;28;20987;-78
2021/05/20 01:34:10;;;;;;;5.80;1.80;;;;;;;18.12;100.00;100255.88;5073481;28;20244;-77
2021/05/20 01:36:36;;;;;;;6.90;2.00;;;;;;;18.12;100.00;100247.88;5073368;28;20164;-75
2021/05/20 01:39:03;;;;;;;3.70;1.80;;;;;;;18.10;100.00;100255.19;5071430;28;20208;-77
2021/05/20 01:41:29;;;;;;;3.63;1.80;;;;;;;18.10;100.00;100246.41;5053130;28;20207;-76
2021/05/20 01:43:55;;;;;;;5.60;2.00;;;;;;;18.10;100.00;100241.91;5053056;28;20435;-77
2021/05/20 01:46:21;;;;;;;6.23;2.20;;;;;;;18.09;100.00;100240.25;5052066;28;20930;-77
2021/05/20 01:48:48;;;;;;;10.00;2.13;;;;;;;18.08;100.00;100238.59;5053088;28;20586;-77
2021/05/20 01:51:19;;;;;;;4.83;1.90;;;;;;;18.10;100.00;100241.09;5052937;28;20244;-76
2021/05/20 01:53:49;;;;;;;5.63;1.97;;;;;;;18.14;100.00;100242.44;5053316;28;20403;-78
2021/05/20 01:56:17;;;;;;;6.20;2.20;;;;;;;18.16;100.00;100230.63;5052926;28;20416;-75
2021/05/20 01:58:44;;;;;;;7.00;1.83;;;;;;;18.14;100.00;100239.78;5052915;28;20430;-78
2021/05/20 02:01:10;;;;;;;4.90;1.90;;;;;;;18.15;100.00;100250.25;5070352;28;20415;-74
2021/05/20 02:03:36;;;;;;;4.77;1.80;;;;;;;18.22;100.00;100251.25;5072774;28;20448;-76
2021/05/20 02:06:03;;;;;;;5.70;2.07;;;;;;;18.14;100.00;100247.75;5072377;28;20495;-77
2021/05/20 02:08:29;;;;;;;6.23;1.87;;;;;;;18.27;100.00;100253.41;5071837;28;20958;-77
2021/05/20 02:10:55;;;;;;;6.70;1.80;;;;;;;18.34;100.00;100238.44;5072570;28;20556;-77
2021/05/20 02:13:21;;;;;;;5.27;2.03;;;;;;;18.35;100.00;100226.81;5072474;28;20423;-76
2021/05/20 02:15:46;;;;;;;7.80;1.93;;;;;;;18.32;100.00;100223.66;5072600;28;20817;-75
2021/05/20 02:18:12;;;;;;;5.27;1.77;;;;;;;18.34;100.00;100214.50;5070850;28;20249;-77
2021/05/20 02:20:38;;;;;;;6.20;1.83;;;;;;;18.33;100.00;100209.34;5058394;28;20654;-77
2021/05/20 02:23:04;;;;;;;3.17;1.57;;;;;;;18.38;100.00;100215.03;5052591;28;20675;-77
2021/05/20 02:25:30;;;;;;;6.23;2.00;;;;;;;18.38;100.00;100217.69;5053219;28;20845;-77
2021/05/20 02:27:56;;;;;;;3.60;1.67;;;;;;;18.39;100.00;100208.69;5052132;28;20530;-79
2021/05/20 02:30:22;;;;;;;10.23;1.80;;;;;;;18.40;100.00;100202.38;5052414;28;20172;-80
2021/05/20 02:32:48;;;;;;;4.37;1.87;;;;;;;18.31;100.00;100198.88;5052211;28;20169;-78
2021/05/20 02:35:13;;;;;;;4.43;1.83;;;;;;;18.36;100.00;100199.19;5052289;28;20453;-78
2021/05/20 02:37:39;;;;;;;7.50;1.60;;;;;;;18.36;100.00;100199.19;5052154;28;20166;-79
2021/05/20 02:40:06;;;;;;;3.80;1.47;;;;;;;18.37;100.00;100198.22;5060389;28;20224;-77
2021/05/20 02:42:33;;;;;;;7.57;2.60;;;;;;;18.28;100.00;100202.69;5071894;28;20189;-78
2021/05/20 02:44:59;;;;;;;6.23;2.10;;;;;;;18.19;100.00;100194.88;5071606;28;20445;-79
2021/05/20 02:47:24;;;;;;;4.60;1.93;;;;;;;18.16;100.00;100193.41;5072131;28;20870;-79
2021/05/20 02:49:50;;;;;;;4.57;1.80;;;;;;;18.18;100.00;100196.72;5072154;28;20168;-78
2021/05/20 02:52:15;;;;;;;4.23;1.60;;;;;;;18.20;100.00;100193.88;5071794;28;20651;-77
2021/05/20 02:54:41;;;;;;;4.90;1.90;;;;;;;18.19;100.00;100197.53;5072073;28;20160;-77
2021/05/20 02:57:07;;;;;;;4.47;1.60;;;;;;;18.16;100.00;100206.69;5057004;28;20773;-76
2021/05/20 02:59:34;;;;;;;4.60;1.97;;;;;;;18.22;100.00;100205.22;5055064;28;20172;-75
2021/05/20 03:02:07;;;;;;;4.63;1.80;;;;;;;18.23;100.00;100214.84;5070068;28;20454;-77
2021/05/20 03:04:37;;;;;;;4.43;2.00;;;;;;;18.21;100.00;100212.34;5071474;28;20422;-78
2021/05/20 03:07:05;;;;;;;6.50;2.30;;;;;;;18.27;100.00;100210.84;5068224;28;20411;-76
2021/05/20 03:09:31;;;;;;;6.20;2.03;;;;;;;18.31;100.00;100214.84;5060879;28;20883;-75
2021/05/20 03:11:58;;;;;;;7.00;2.00;;;;;;;18.26;100.00;100214.50;5069825;28;20399;-78
2021/05/20 03:14:25;;;;;;;3.93;1.60;;;;;;;18.27;100.00;100206.34;5065301;28;20150;-78
2021/05/20 03:16:51;;;;;;;7.10;1.90;;;;;;;18.34;100.00;100195.06;5052799;28;20408;-79
2021/05/20 03:19:16;;;;;;;4.90;1.93;;;;;;;18.37;100.00;100197.41;5051491;28;20384;-78
2021/05/20 03:21:42;;;;;;;6.10;1.73;;;;;;;18.43;100.00;100196.72;5051191;28;20189;-76
2021/05/20 03:24:08;;;;;;;9.93;2.30;;;;;;;18.42;100.00;100190.56;5052465;28;20196;-77
2021/05/20 03:26:34;;;;;;;9.33;3.80;;;;;;;18.29;100.00;100191.09;5051772;28;20168;-78
2021/05/20 03:29:00;;;;;;;5.63;2.17;;;;;;;18.28;100.00;100197.38;5051336;28;20794;-76
2021/05/20 03:31:26;;;;;;;12.53;2.80;;;;;;;18.20;100.00;100191.22;5051215;28;20173;-74
2021/05/20 03:33:51;;;;;;;7.03;2.37;;;;;;;18.12;100.00;100192.03;5051345;28;20236;-76
2021/05/20 03:36:17;;;;;;;14.97;3.63;;;;;;;17.94;100.00;100184.22;5052114;28;20157;-77
2021/05/20 03:38:42;;;;;;;5.30;2.10;;;;;;;18.10;100.00;100195.88;5051186;28;20251;-77
2021/05/20 03:41:08;;;;;;;5.37;2.40;;;;;;;18.01;100.00;100201.19;5051272;28;20246;-75
2021/05/20 03:43:38;;;;;;;5.20;2.40;;;;;;;18.06;100.00;100194.53;5052196;28;20181;-75
2021/05/20 03:46:04;;;;;;;5.77;2.73;;;;;;;18.06;100.00;100191.88;5052428;28;20157;-74
2021/05/20 03:48:30;;;;;;;15.60;3.27;;;;;;;18.14;100.00;100191.91;5051102;28;20477;-78
2021/05/20 03:51:15;;;;;;;4.30;2.60;;;;;;;18.12;100.00;100194.72;5051045;28;20424;-74
2021/05/20 03:53:41;;;;;;;8.77;2.50;;;;;;;18.14;100.00;100175.94;5050711;28;20410;-74
2021/05/20 03:56:07;;;;;;;9.07;4.03;;;;;;;18.23;100.00;100172.28;5051115;28;20432;-73
2021/05/20 03:58:33;;;;;;;7.87;3.00;;;;;;;18.36;100.00;100177.09;5050904;28;20211;-78
2021/05/20 04:00:58;;;;;;;8.10;3.43;;;;;;;18.41;100.00;100180.09;5053780;28;20160;-77
2021/05/20 04:03:28;;;;;;;7.40;2.60;;;;;;;18.36;100.00;100174.44;5070505;28;20485;-76
2021/05/20 04:05:55;;;;;;;6.40;4.17;;;;;;;18.40;100.00;100163.31;5069641;28;20172;-77
2021/05/20 04:08:20;;;;;;;7.47;2.90;;;;;;;18.53;100.00;100174.28;5070747;28;20394;-75
2021/05/20 04:10:47;;;;;;;7.40;2.50;;;;;;;18.65;100.00;100179.25;5074607;28;20426;-77
2021/05/20 04:13:13;;;;;;;12.93;2.93;;;;;;;18.84;100.00;100182.41;5074414;28;20156;-73
2021/05/20 04:15:39;;;;;;;9.33;2.90;;;;;;;18.89;100.00;100189.88;5074167;28;20407;-75
2021/05/20 04:18:04;;;;;;;7.23;3.03;;;;;;;18.92;100.00;100165.59;5074596;28;20406;-76
2021/05/20 04:20:30;;;;;;;7.30;2.50;;;;;;;18.98;100.00;100162.25;5074387;28;20248;-76
2021/05/20 04:22:55;;;;;;;13.27;3.70;;;;;;;18.99;100.00;100163.91;5073995;28;20569;-76
2021/05/20 04:25:21;;;;;;;5.03;2.70;;;;;;;19.03;100.00;100165.19;5062323;28;20500;-75
2021/05/20 04:27:47;;;;;;;7.23;3.20;;;;;;;18.67;100.00;100194.09;5055412;28;20543;-78
2021/05/20 04:30:13;;;;;;;8.67;3.60;;;;;;;18.56;100.00;100202.38;5073376;28;20176;-78
2021/05/20 04:32:38;;;;;;;8.00;3.17;;;;;;;18.42;100.00;100166.63;5074983;28;20250;-79
2021/05/20 04:35:04;;;;;;;6.27;3.23;;;;;;;18.26;100.00;100172.78;5074217;28;20399;-78
2021/05/20 04:37:30;;;;;;;13.77;4.87;;;;;;;18.17;100.00;100170.28;5074250;28;20172;-78
2021/05/20 04:39:55;;;;;;;5.40;3.13;;;;;;;18.43;100.00;100178.91;5073961;28;20501;-78
2021/05/20 04:42:21;;;;;;;6.50;3.10;;;;;;;18.45;100.00;100163.66;5055788;28;20188;-76
2021/05/20 04:44:46;;;;;;;7.27;3.40;;;;;;;18.35;100.00;100178.91;5053856;28;20535;-77
2021/05/20 04:47:12;;;;;;;7.03;4.23;;;;;;;18.42;100.00;100177.25;5054229;28;20165;-78
2021/05/20 04:49:37;;;;;;;7.20;3.40;;;;;;;18.36;100.00;100169.94;5053522;28;20741;-79
2021/05/20 04:52:03;;;;;;;6.80;3.23;;;;;;;18.38;100.00;100160.00;5054054;28;20162;-78
2021/05/20 04:54:29;;;;;;;5.50;3.50;;;;;;;18.46;100.00;100165.31;5053970;28;20679;-85
2021/05/20 04:56:54;;;;;;;10.30;4.00;;;;;;;18.49;100.00;100164.94;5053895;28;20161;-78
2021/05/20 04:59:19;;;;;;;8.10;6.30;;;;;;;18.60;100.00;100160.31;5070582;28;20576;-78
2021/05/20 05:01:46;;;;;;;6.20;3.50;;;;;;;18.57;100.00;100151.63;5067913;28;20209;-77
2021/05/20 05:04:12;;;;;;;7.00;3.20;;;;;;;18.47;100.00;100158.97;5062250;28;20188;-75
2021/05/20 05:06:37;;;;;;;6.33;3.67;;;;;;;18.39;100.00;100143.03;5067798;28;20960;-76
2021/05/20 05:09:03;;;;;;;7.43;3.80;;;;;;;18.52;100.00;100153.16;5058468;28;20160;-74
2021/05/20 05:11:29;;;;;;;5.50;3.23;;;;;;;18.67;100.00;100156.00;5059135;28;20261;-75
2021/05/20 05:13:54;;;;;;;8.97;3.30;;;;;;;18.69;100.00;100141.50;5073760;28;20409;-85
2021/05/20 05:16:20;;;;;;;6.90;3.30;;;;;;;18.71;100.00;100139.50;5052232;28;20163;-80
2021/05/20 05:18:45;;;;;;;6.20;2.90;;;;;;;18.68;100.00;100136.38;5067963;28;20820;-73
2021/05/20 05:21:11;;;;;;;6.87;3.33;;;;;;;18.71;100.00;100136.84;5066177;28;20200;-72
2021/05/20 05:23:36;;;;;;;5.40;3.20;;;;;;;18.64;100.00;100138.50;5060024;28;20859;-75
2021/05/20 05:26:03;;;;;;;7.63;3.00;;;;;;;18.64;100.00;100137.66;5068658;28;20310;-74
2021/05/20 05:28:28;;;;;;;7.30;3.13;;;;;;;18.78;100.00;100143.16;5093345;28;20285;-73
2021/05/20 05:30:54;;;;;;;12.43;3.30;;;;;;;18.94;100.00;100150.25;5070488;28;20491;-78
2021/05/20 05:33:23;;;;;;;8.10;3.60;;;;;;;19.04;100.00;100150.06;5053244;28;20196;-76
2021/05/20 05:35:49;;;;;;;10.97;3.90;;;;;;;19.16;100.00;100146.03;5057170;28;20173;-78
2021/05/20 05:38:15;;;;;;;7.73;4.10;;;;;;;19.30;100.00;100144.47;5052876;28;20462;-84
2021/05/20 05:40:41;;;;;;;8.00;3.50;;;;;;;19.25;100.00;100144.97;5053377;28;20506;-84
2021/05/20 05:43:07;;;;;;;9.07;3.70;;;;;;;18.98;100.00;100170.22;5070489;28;20980;-78
2021/05/20 05:45:32;;;;;;;9.67;3.70;;;;;;;18.82;100.00;100168.44;5061182;28;20439;-75
2021/05/20 05:47:58;;;;;;;6.90;3.50;;;;;;;18.77;100.00;100162.78;5061016;28;20584;-75
2021/05/20 05:50:23;;;;;;;8.23;4.40;;;;;;;18.77;100.00;100164.63;5052403;28;20170;-74
2021/05/20 05:52:49;;;;;;;6.73;3.20;;;;;;;18.77;100.00;100175.28;5052688;28;20291;-83
2021/05/20 05:55:15;;;;;;;10.27;4.97;;;;;;;18.79;100.00;100162.63;5052851;28;20178;-76
2021/05/20 05:57:40;;;;;;;5.70;3.93;;;;;;;18.95;100.00;100162.56;5056146;28;20660;-77
2021/05/20 06:00:07;;;;;;;6.70;3.27;;;;;;;19.17;100.00;100163.66;5063469;28;20173;-72
2021/05/20 06:02:33;;;;;;;8.57;2.73;;;;;;;19.20;100.00;100147.34;5065573;28;20192;-79
2021/05/20 06:05:00;;;;;;;8.83;3.23;;;;;;;19.41;100.00;100142.22;5059061;28;20875;-75
2021/05/20 06:07:26;;;;;;;4.33;2.73;;;;;;;19.48;100.00;100145.03;5052948;28;20977;-75
2021/05/20 06:09:51;;;;;;;7.70;3.10;;;;;;;19.45;100.00;100142.72;5070858;28;20485;-77
2021/05/20 06:12:17;;;;;;;6.67;3.03;;;;;;;19.47;100.00;100138.03;5070267;28;20161;-83
2021/05/20 06:14:43;;;;;;;4.70;2.73;;;;;;;19.50;100.00;100134.22;5064236;28;20245;-79
2021/05/20 06:17:08;;;;;;;4.80;3.30;;;;;;;19.62;100.00;100120.34;5056815;28;20173;-82
2021/05/20 06:19:34;;;;;;;5.90;2.47;;;;;;;19.73;100.00;100118.28;5052395;28;20948;-72
2021/05/20 06:22:00;;;;;;;4.10;2.37;;;;;;;19.76;100.00;100129.41;5071659;28;20184;-82
2021/05/20 06:24:25;;;;;;;8.77;2.70;;;;;;;19.66;100.00;100128.81;5071324;28;20752;-77
2021/05/20 06:26:51;;;;;;;4.37;2.63;;;;;;;19.64;100.00;100141.47;5070146;28;20561;-81
2021/05/20 06:29:16;;;;;;;5.10;1.87;;;;;;;19.86;100.00;100135.34;5071802;28;20175;-83
2021/05/20 06:31:42;;;;;;;5.73;2.57;;;;;;;20.10;100.00;100138.81;5065160;28;20236;-76
2021/05/20 06:34:08;;;;;;;7.20;2.50;;;;;;;20.20;100.00;100137.59;5062845;28;20161;-72
2021/05/20 06:36:35;;;;;;;4.87;2.60;;;;;;;20.37;100.00;100130.25;5071630;28;20237;-74
2021/05/20 06:39:01;;;;;;;8.00;2.70;;;;;;;20.59;100.00;100127.75;5070467;28;20762;-80
2021/05/20 06:41:28;;;;;;;5.90;2.37;;;;;;;20.43;100.00;100129.53;5070934;28;20418;-74
2021/05/20 06:43:53;;;;;;;6.40;2.30;;;;;;;20.26;100.00;100130.72;5071545;28;20251;-77
2021/05/20 06:46:20;;;;;;;10.83;2.90;;;;;;;20.45;100.00;100145.41;5071586;28;20486;-75
2021/05/20 06:48:45;;;;;;;6.17;3.23;;;;;;;20.53;100.00;100131.97;5071443;28;20615;-76
2021/05/20 06:51:11;;;;;;;6.83;3.00;;;;;;;20.42;100.00;100116.38;5070965;28;20436;-75
2021/05/20 06:53:38;;;;;;;6.93;3.47;;;;;;;20.26;100.00;100130.72;5071394;28;20635;-74
2021/05/20 06:56:06;;;;;;;5.93;2.80;;;;;;;20.06;100.00;100133.03;5069700;28;20647;-76
2021/05/20 07:01:15;;;;;;;6.40;3.63;;;;;;;19.42;100.00;100135.06;5070860;28;20426;-72
2021/05/20 07:03:42;;;;;;;5.03;3.37;;;;;;;19.21;100.00;100133.03;5070871;28;20426;-75
2021/05/20 07:06:08;;;;;;;7.23;4.20;;;;;;;19.04;100.00;100129.59;5060187;28;20179;-76
2021/05/20 07:08:34;;;;;;;4.83;3.40;;;;;;;18.75;100.00;100140.00;5069736;28;20893;-77
2021/05/20 07:10:59;;;;;;;6.73;3.87;;;;;;;18.66;100.00;100139.19;5070948;28;20463;-78
2021/05/20 07:13:25;;;;;;;7.43;4.10;;;;;;;18.83;100.00;100140.00;5068945;28;20172;-79
2021/05/20 07:15:51;;;;;;;8.77;4.10;;;;;;;19.12;100.00;100142.88;5071237;28;20222;-86
2021/05/20 07:18:17;;;;;;;13.73;3.60;;;;;;;19.28;100.00;100154.47;5071199;28;20160;-75
2021/05/20 07:20:43;;;;;;;6.47;4.10;;;;;;;19.22;100.00;100158.66;5070564;28;20195;-81
2021/05/20 07:23:13;;;;;;;12.57;4.30;;;;;;;19.43;100.00;100168.72;5068582;28;20544;-77
2021/05/20 07:25:40;;;;;;;7.80;4.00;;;;;;;19.73;100.00;100163.59;5069261;28;20594;-77
2021/05/20 07:28:06;;;;;;;6.47;3.90;;;;;;;19.20;100.00;100176.66;5071480;28;20391;-83
2021/05/20 07:30:32;;;;;;;6.50;4.50;;;;;;;18.93;100.00;100182.38;5062241;28;20501;-81
2021/05/20 07:32:58;;;;;;;5.30;3.87;;;;;;;18.78;100.00;100179.59;5057485;28;20418;-78
2021/05/20 07:35:24;;;;;;;9.13;3.60;;;;;;;19.28;100.00;100167.81;5049819;28;20387;-81
2021/05/20 07:37:50;;;;;;;5.70;3.50;;;;;;;19.64;100.00;100166.28;5059166;28;20496;-80
2021/05/20 07:40:16;;;;;;;4.27;3.60;;;;;;;19.62;100.00;100170.97;5068285;28;20888;-82
2021/05/20 07:42:42;;;;;;;6.90;3.83;;;;;;;19.30;100.00;100176.44;5069020;28;20204;-76
2021/05/20 07:45:11;;;;;;;9.20;3.80;;;;;;;19.39;100.00;100156.75;5048594;28;20522;-71
2021/05/20 07:47:36;;;;;;;5.50;3.70;;;;;;;19.46;100.00;100176.38;5064410;28;20163;-84
2021/05/20 07:50:03;;;;;;;7.20;4.30;;;;;;;19.22;100.00;100173.81;5074535;28;20399;-81
2021/05/20 07:52:28;;;;;;;6.50;3.97;;;;;;;18.88;100.00;100172.22;5075385;28;20624;-80
2021/05/20 07:54:56;;;;;;;7.33;2.90;;;;;;;18.59;100.00;100180.75;5075183;28;20389;-75
2021/05/20 07:57:21;;;;;;;6.53;3.93;;;;;;;18.36;100.00;100177.94;5075198;28;20625;-74
2021/05/20 07:59:47;;;;;;;7.20;3.90;;;;;;;18.32;100.00;100192.56;5075107;28;20430;-81
2021/05/20 08:02:31;;;;;;;8.73;3.00;;;;;;;18.42;100.00;100166.63;5074877;28;20199;-83
2021/05/20 08:05:11;;;;;;;5.67;3.43;;;;;;;18.71;100.00;100190.06;5077111;28;20267;-85
2021/05/20 08:12:42;;;;;;;6.37;2.63;;;;;;;19.21;100.00;100204.13;5074688;28;20164;-88
2021/05/20 08:15:08;;;;;;;4.70;3.00;;;;;;;19.29;100.00;100191.59;5076074;28;20857;-82
2021/05/20 08:17:34;;;;;;;4.80;3.00;;;;;;;19.46;100.00;100212.84;5075134;28;20411;-80
2021/05/20 08:20:00;;;;;;;4.37;2.60;;;;;;;19.58;100.00;100204.34;5075286;28;20847;-85
2021/05/20 08:22:25;;;;;;;4.50;2.43;;;;;;;19.79;100.00;100201.03;5074425;28;20184;-85
2021/05/20 08:24:53;;;;;;;4.80;2.20;;;;;;;19.99;100.00;100188.09;5074463;28;20175;-84
2021/05/20 08:27:18;;;;;;;3.30;2.23;;;;;;;20.16;100.00;100181.63;5074457;28;20174;-83
2021/05/20 08:29:45;;;;;;;5.07;1.80;;;;;;;20.28;100.00;100179.38;5074949;28;20410;-81
2021/05/20 08:32:10;;;;;;;4.47;1.80;;;;;;;20.13;100.00;100162.50;5076078;28;20153;-85
2021/05/20 08:34:36;;;;;;;5.33;2.70;;;;;;;20.13;100.00;100154.47;5074201;28;20422;-84
2021/05/20 08:37:01;;;;;;;8.77;2.67;;;;;;;20.07;100.00;100157.88;5066375;28;20192;-89
2021/05/20 08:39:28;;;;;;;5.83;2.57;;;;;;;19.90;100.00;100147.31;5055951;28;20745;-85
2021/05/20 08:41:54;;;;;;;7.63;2.73;;;;;;;19.79;100.00;100166.38;5059752;28;20184;-86
2021/05/20 08:44:25;;;;;;;15.40;3.63;;;;;;;20.37;100.00;100169.47;5076308;28;20419;-84
2021/05/20 08:46:50;;;;;;;10.50;3.37;;;;;;;20.70;100.00;100164.66;5076398;28;20834;-88
2021/05/20 08:49:16;;;;;;;4.30;2.27;;;;;;;20.91;100.00;100162.09;5063255;28;20916;-86
2021/05/20 08:51:44;;;;;;;3.97;1.80;;;;;;;20.95;100.00;100170.59;5058239;28;20658;-80
2021/05/20 08:54:10;;;;;;;5.10;2.23;;;;;;;20.91;100.00;100166.63;5057013;28;20168;-80
2021/05/20 08:56:36;;;;;;;4.93;2.30;;;;;;;21.17;100.00;100166.19;5056830;28;20396;-84
2021/05/20 08:59:02;;;;;;;3.33;2.40;;;;;;;21.22;100.00;100163.75;5058761;28;20423;-77
2021/05/20 09:01:38;;;;;;;3.93;2.20;;;;;;;21.15;100.00;100168.19;5055651;28;20165;-84
2021/05/20 09:04:04;;;;;;;3.50;1.83;;;;;;;21.24;100.00;100178.63;5068340;28;20491;-90
2021/05/20 09:06:50;;;;;;;5.20;2.67;;;;;;;21.14;100.00;100171.88;5078558;28;20379;-80
2021/05/20 09:09:24;;;;;;;4.07;2.47;;;;;;;20.90;100.00;100181.81;5077088;28;20383;-86
2021/05/20 09:11:54;;;;;;;3.57;2.40;;;;;;;20.76;100.00;100199.47;5077198;28;20430;-90
2021/05/20 09:14:29;;;;;;;3.90;2.20;;;;;;;20.80;100.00;100196.47;5077797;28;20931;-79
2021/05/20 09:17:11;;;;;;;4.23;2.43;;;;;;;20.79;100.00;100217.00;5075868;28;20391;-81
2021/05/20 09:19:38;;;;;;;3.80;2.37;;;;;;;21.01;100.00;100209.94;5057972;28;20483;-91
2021/05/20 09:22:08;;;;;;;4.77;2.03;;;;;;;21.49;100.00;100210.41;5056494;28;20435;-79
2021/05/20 09:24:49;;;;;;;4.83;2.07;;;;;;;21.79;100.00;100214.69;5055133;28;20400;-83
2021/05/20 09:27:25;;;;;;;4.73;2.30;;;;;;;21.39;100.00;100223.25;5053093;28;20399;-80
2021/05/20 09:30:18;;;;;;;3.00;1.80;;;;;;;20.74;100.00;100225.53;5071928;28;20425;-81
2021/05/20 09:32:58;;;;;;;4.53;2.37;;;;;;;20.61;100.00;100235.19;5069950;28;20544;-83
2021/05/20 09:35:25;;;;;;;5.00;2.10;;;;;;;20.80;100.00;100239.19;5071950;28;20407;-86
2021/05/20 09:37:53;;;;;;;2.93;1.73;;;;;;;21.13;100.00;100229.00;5072315;28;20411;-82
2021/05/20 09:40:25;;;;;;;3.40;2.03;;;;;;;21.17;100.00;100241.81;5072060;28;20410;-80
2021/05/20 09:42:51;;;;;;;5.80;1.70;;;;;;;21.46;100.00;100243.69;5073073;28;20455;-85
2021/05/20 09:45:23;;;;;;;7.63;1.67;;;;;;;21.41;100.00;100254.13;5073789;28;20403;-82
2021/05/20 09:47:49;;;;;;;5.10;1.83;;;;;;;21.08;100.00;100268.78;5072086;28;20391;-77
2021/05/20 09:50:22;;;;;;;3.63;1.97;;;;;;;20.58;100.00;100281.75;5072706;28;20405;-74
2021/05/20 09:52:48;;;;;;;5.23;2.00;;;;;;;20.39;100.00;100280.34;5072867;28;20387;-79
2021/05/20 09:55:24;;;;;;;5.17;2.13;;;;;;;20.14;100.00;100285.03;5073244;28;20407;-74
2021/05/20 09:57:50;;;;;;;4.37;2.00;;;;;;;19.82;100.00;100287.88;5073733;28;20452;-80
2021/05/20 10:00:21;;;;;;;4.13;1.73;;;;;;;19.72;100.00;100292.56;5072348;28;20517;-79
2021/05/20 10:02:47;;;;;;;3.90;1.83;;;;;;;19.65;100.00;100303.09;5072259;28;20458;-85
2021/05/20 10:05:40;;;;;;;4.23;2.53;;;;;;;19.45;100.00;100315.94;5072700;28;20392;-83
2021/05/20 10:08:07;;;;;;;12.53;2.40;;;;;;;19.35;100.00;100316.13;5069775;28;21007;-82
2021/05/20 10:10:40;;;;;;;3.60;1.97;;;;;;;19.46;100.00;100330.09;5072316;28;20391;-78
2021/05/20 10:13:22;;;;;;;4.20;1.83;;;;;;;19.38;100.00;100329.09;5072337;28;20999;-86
2021/05/20 10:15:49;;;;;;;4.33;2.10;;;;;;;19.68;100.00;100348.06;5071710;28;20887;-76
2021/05/20 10:18:20;;;;;;;3.03;1.93;;;;;;;20.07;100.00;100339.25;5053698;28;20439;-75
2021/05/20 10:20:47;;;;;;;8.17;3.20;;;;;;;20.10;100.00;100331.75;5071602;28;20873;-80
2021/05/20 10:23:16;;;;;;;4.80;2.27;;;;;;;20.09;100.00;100353.22;5071038;28;20450;-82
2021/05/20 10:25:43;;;;;;;3.70;2.00;;;;;;;20.09;100.00;100348.72;5071707;28;20391;-74
2021/05/20 10:28:12;;;;;;;3.17;1.80;;;;;;;19.86;100.00;100350.50;5073664;28;20877;-79
2021/05/20 10:30:40;;;;;;;4.80;2.00;;;;;;;19.77;100.00;100346.19;5071855;28;20411;-84
2021/05/20 10:33:06;;;;;;;4.80;2.10;;;;;;;19.83;100.00;100342.84;5072291;28;20496;-78
2021/05/20 10:35:38;;;;;;;3.27;1.77;;;;;;;20.02;100.00;100353.09;5072872;28;20472;-84
2021/05/20 10:38:05;;;;;;;2.90;1.87;;;;;;;19.70;100.00;100350.56;5073214;28;20522;-80
2021/05/20 10:40:33;;;;;;;3.63;2.03;;;;;;;19.71;100.00;100346.88;5072474;28;20407;-89
2021/05/20 10:43:12;;;;;;;3.37;1.70;;;;;;;19.68;100.00;100348.91;5072440;28;20482;-83
2021/05/20 10:45:57;;;;;;;9.50;2.20;;;;;;;19.74;100.00;100354.56;5072557;28;20406;-82
2021/05/20 10:48:24;;;;;;;3.30;1.90;;;;;;;19.73;100.00;100351.06;5072689;28;20407;-87
2021/05/20 10:50:55;;;;;;;9.80;2.57;;;;;;;19.62;100.00;100351.41;5072795;28;20734;-81
2021/05/20 10:53:46;;;;;;;3.20;2.10;;;;;;;19.59;100.00;100344.59;5072239;28;20395;-87
2021/05/20 10:56:14;;;;;;;3.33;2.00;;;;;;;19.70;100.00;100338.06;5071935;28;20505;-82
2021/05/20 10:58:43;;;;;;;4.50;2.57;;;;;;;19.92;100.00;100339.97;5071750;28;20523;-85
2021/05/20 11:01:34;;;;;;;3.07;1.90;;;;;;;20.19;100.00;100341.38;5072175;28;20452;-77
2021/05/20 11:04:03;;;;;;;4.33;2.33;;;;;;;20.27;100.00;100339.66;5071287;28;20525;-82
2021/05/20 11:06:38;;;;;;;3.17;1.50;;;;;;;20.31;100.00;100355.13;5071811;28;20389;-79
2021/05/20 11:09:40;;;;;;;2.77;1.53;;;;;;;20.44;100.00;100351.94;5071033;28;20985;-72
2021/05/20 11:12:06;;;;;;;2.90;1.50;;;;;;;20.55;100.00;100356.84;5064281;28;20456;-74
2021/05/20 11:14:33;;;;;;;25.93;18.77;;;;;;;20.83;100.00;100340.31;5053792;28;20404;-86
2021/05/20 11:16:58;;;;;;;2.97;1.50;;;;;;;21.01;100.00;100338.16;5070631;28;20170;-78
2021/05/20 11:19:28;;;;;;;2.80;1.40;;;;;;;20.96;100.00;100333.34;5065958;28;20479;-81
2021/05/20 11:22:07;;;;;;;2.30;1.30;;;;;;;21.12;100.00;100329.72;5070750;28;20199;-78
2021/05/20 11:24:43;;;;;;;3.43;1.60;;;;;;;21.03;100.00;100336.97;5052813;28;20406;-79
2021/05/20 11:27:19;;;;;;;2.80;1.40;;;;;;;20.83;100.00;100341.13;5056332;28;20834;-81